Time;durP1;ratioP1;P1;durP2;ratioP2;P2;SDS_P1;SDS_P2;PMS_P1;PMS_P2;Temp;Humidity;BMP_temperature;BMP_pressure;BME280_temperature;BME280_humidity;BME280_pressure;Samples;Min_cycle;Max_cycle;Signal;HPM_P1;HPM_P2
2022/10/06 00:00:44;;;;;;;6.07;0.80;;;;;;;13.93;47.86;100228.63;4977345;28;20208;-86
2022/10/06 00:03:10;;;;;;;1.50;0.67;;;;;;;13.88;48.38;100221.88;4977582;28;20314;-86
2022/10/06 00:05:35;;;;;;;3.30;1.03;;;;;;;13.87;48.33;100221.00;4977260;28;20591;-86
2022/10/06 00:08:02;;;;;;;3.50;0.83;;;;;;;13.85;48.41;100216.75;4977250;28;20191;-87
2022/10/06 00:10:28;;;;;;;1.27;0.50;;;;;;;13.77;48.10;100222.38;4977490;28;20596;-86
2022/10/06 00:12:54;;;;;;;1.73;0.70;;;;;;;13.72;48.57;100219.13;4977139;28;20187;-86
2022/10/06 00:15:25;;;;;;;1.83;0.90;;;;;;;13.67;48.36;100223.75;4977009;28;20691;-86
2022/10/06 00:17:51;;;;;;;2.07;0.87;;;;;;;13.65;48.65;100228.25;4992363;28;20249;-86
2022/10/06 00:20:17;;;;;;;2.00;0.83;;;;;;;13.57;48.30;100216.38;4992235;28;20180;-86
2022/10/06 00:22:46;;;;;;;1.67;0.80;;;;;;;13.57;48.54;100216.38;4976954;28;20198;-86
2022/10/06 00:25:16;;;;;;;4.07;0.90;;;;;;;13.47;48.69;100219.44;4976917;28;20207;-86
2022/10/06 00:27:43;;;;;;;1.40;1.00;;;;;;;13.46;48.50;100222.16;4975929;28;20549;-87
2022/10/06 00:30:11;;;;;;;1.27;0.77;;;;;;;13.39;48.53;100228.63;4976755;28;20200;-86
2022/10/06 00:32:38;;;;;;;1.30;0.63;;;;;;;13.43;48.43;100219.66;4975797;28;20188;-86
2022/10/06 00:35:04;;;;;;;1.70;0.77;;;;;;;13.39;48.30;100218.94;4991870;28;20584;-86
2022/10/06 00:37:34;;;;;;;1.87;0.90;;;;;;;13.39;48.14;100226.00;4991983;28;20195;-86
2022/10/06 00:40:00;;;;;;;1.83;0.93;;;;;;;13.30;48.46;100222.00;4976640;28;20183;-86
2022/10/06 00:42:31;;;;;;;1.43;0.50;;;;;;;13.19;48.88;100212.88;4991857;28;20223;-86
2022/10/06 00:45:01;;;;;;;2.87;1.07;;;;;;;13.15;49.64;100219.22;4976383;28;20175;-86
2022/10/06 00:47:30;;;;;;;3.03;1.30;;;;;;;13.08;49.89;100218.63;4991850;28;20205;-86
2022/10/06 00:49:57;;;;;;;2.30;1.30;;;;;;;13.05;50.40;100220.53;4975538;28;20219;-86
2022/10/06 00:52:27;;;;;;;2.20;1.10;;;;;;;13.04;51.07;100210.94;4976433;28;20197;-86
2022/10/06 00:54:52;;;;;;;2.90;1.30;;;;;;;13.08;51.47;100213.38;4991541;28;20286;-85
2022/10/06 00:57:19;;;;;;;4.50;2.00;;;;;;;13.08;51.70;100209.88;4976859;28;20182;-86
2022/10/06 00:59:45;;;;;;;3.27;1.30;;;;;;;13.07;51.43;100205.56;4976795;28;20203;-86
2022/10/06 01:02:25;;;;;;;5.23;0.90;;;;;;;13.05;51.50;100207.38;4976601;28;20176;-86
2022/10/06 01:04:56;;;;;;;2.10;1.23;;;;;;;13.12;51.16;100209.69;4991427;28;20179;-86
2022/10/06 01:07:25;;;;;;;1.90;1.20;;;;;;;13.15;51.12;100208.69;4991456;28;20179;-86
2022/10/06 01:09:51;;;;;;;8.83;1.30;;;;;;;13.05;51.21;100202.13;4976111;28;20193;-86
2022/10/06 01:12:18;;;;;;;1.67;0.90;;;;;;;12.97;51.27;100202.44;4991344;28;20184;-86
2022/10/06 01:14:43;;;;;;;3.80;1.10;;;;;;;12.95;51.74;100199.88;4991125;28;20590;-86
2022/10/06 01:17:15;;;;;;;1.73;0.97;;;;;;;12.90;52.10;100196.63;4991204;28;20225;-86
2022/10/06 01:19:58;;;;;;;3.53;1.80;;;;;;;12.86;52.15;100202.94;4991195;28;20255;-86
2022/10/06 01:22:36;;;;;;;2.73;1.20;;;;;;;12.83;52.13;100208.34;4976168;28;20186;-86
2022/10/06 01:25:04;;;;;;;2.37;1.03;;;;;;;12.64;51.79;100194.28;4976077;28;20206;-87
2022/10/06 01:27:31;;;;;;;3.80;1.27;;;;;;;12.66;51.52;100189.81;4975679;28;20630;-87
2022/10/06 01:29:58;;;;;;;6.43;1.30;;;;;;;12.62;51.71;100203.16;4974646;28;20699;-86
2022/10/06 01:32:26;;;;;;;2.77;1.20;;;;;;;12.69;51.52;100196.72;4990889;28;20282;-86
2022/10/06 01:34:51;;;;;;;2.30;1.10;;;;;;;12.62;51.54;100198.78;4975577;28;20778;-86
2022/10/06 01:37:17;;;;;;;2.83;1.23;;;;;;;12.65;52.08;100187.25;4975583;28;20266;-86
2022/10/06 01:39:44;;;;;;;2.97;1.43;;;;;;;12.57;52.30;100192.88;4974599;28;20565;-86
2022/10/06 01:42:10;;;;;;;4.03;1.67;;;;;;;12.62;52.14;100185.63;4974577;28;20650;-86
2022/10/06 01:44:35;;;;;;;3.03;1.30;;;;;;;12.63;52.46;100187.31;4974514;28;20185;-86
2022/10/06 01:47:03;;;;;;;3.33;1.50;;;;;;;12.59;52.50;100183.13;4990689;28;20189;-86
2022/10/06 01:49:29;;;;;;;3.70;1.57;;;;;;;12.63;52.83;100183.84;4990635;28;20238;-86
2022/10/06 01:51:54;;;;;;;2.27;1.03;;;;;;;12.62;52.96;100179.50;4990587;28;20277;-86
2022/10/06 01:54:20;;;;;;;3.23;1.30;;;;;;;12.69;53.13;100186.19;4974377;28;20697;-86
2022/10/06 01:56:45;;;;;;;2.87;1.40;;;;;;;12.73;53.29;100180.75;4974654;28;20219;-86
2022/10/06 01:59:10;;;;;;;2.70;1.43;;;;;;;12.70;53.22;100180.00;4974261;28;20185;-86
2022/10/06 02:01:36;;;;;;;2.60;1.33;;;;;;;12.72;53.35;100189.53;4975172;28;20192;-86
2022/10/06 02:04:01;;;;;;;4.80;1.70;;;;;;;12.72;53.63;100180.78;4974149;28;20513;-87
2022/10/06 02:06:27;;;;;;;9.53;1.57;;;;;;;12.69;55.46;100181.78;4975080;28;20225;-86
2022/10/06 02:08:53;;;;;;;3.00;1.20;;;;;;;12.73;55.16;100183.38;4990263;28;20196;-86
2022/10/06 02:11:18;;;;;;;2.40;1.20;;;;;;;12.77;55.10;100178.81;4975269;28;20311;-86
2022/10/06 02:13:44;;;;;;;6.00;1.57;;;;;;;12.74;54.83;100185.06;4974970;28;20185;-86
2022/10/06 02:16:12;;;;;;;3.93;1.50;;;;;;;12.84;54.52;100186.34;4974846;28;20209;-86
2022/10/06 02:18:38;;;;;;;2.37;0.93;;;;;;;12.83;54.10;100181.19;4974914;28;20206;-86
2022/10/06 02:21:04;;;;;;;3.17;1.03;;;;;;;12.83;54.15;100192.56;4990055;28;20287;-86
2022/10/06 02:23:30;;;;;;;1.97;1.00;;;;;;;12.83;53.95;100189.94;4975090;28;20190;-86
2022/10/06 02:25:59;;;;;;;1.70;0.97;;;;;;;12.85;53.61;100195.97;4989987;28;20178;-86
2022/10/06 02:28:25;;;;;;;2.40;1.27;;;;;;;12.85;53.65;100200.38;4974724;28;20235;-86
2022/10/06 02:30:51;;;;;;;2.73;1.47;;;;;;;12.88;53.73;100200.25;4974542;28;20611;-86
2022/10/06 02:33:16;;;;;;;1.43;0.83;;;;;;;12.87;53.33;100202.00;4974676;28;20209;-86
2022/10/06 02:35:42;;;;;;;2.57;1.10;;;;;;;12.86;54.04;100202.94;4974523;28;20633;-86
2022/10/06 02:38:08;;;;;;;2.00;1.13;;;;;;;12.80;54.11;100207.63;4974826;28;20175;-86
2022/10/06 02:40:34;;;;;;;3.80;0.90;;;;;;;12.78;53.84;100207.69;4974522;28;20729;-86
2022/10/06 02:42:59;;;;;;;2.87;1.00;;;;;;;12.83;53.81;100199.59;4974976;28;20183;-86
2022/10/06 02:45:25;;;;;;;1.97;1.00;;;;;;;12.79;54.33;100198.88;4989678;28;20188;-86
2022/10/06 02:47:53;;;;;;;4.90;0.90;;;;;;;12.68;54.61;100209.00;4973464;28;20605;-86
2022/10/06 02:50:19;;;;;;;2.23;0.97;;;;;;;12.66;54.86;100202.97;4974420;28;20173;-86
2022/10/06 02:52:45;;;;;;;2.30;0.90;;;;;;;12.62;54.51;100209.28;4989603;28;20189;-86
2022/10/06 02:55:11;;;;;;;1.47;0.80;;;;;;;12.64;54.84;100207.44;4989505;28;20220;-86
2022/10/06 02:57:36;;;;;;;3.90;1.43;;;;;;;12.65;55.21;100210.94;4989550;28;20184;-87
2022/10/06 03:00:06;;;;;;;1.93;0.80;;;;;;;12.63;55.67;100213.63;4989529;28;20184;-86
2022/10/06 03:02:32;;;;;;;3.17;0.70;;;;;;;12.69;55.47;100208.09;4974507;28;20215;-87
2022/10/06 03:04:58;;;;;;;4.50;0.93;;;;;;;12.67;55.53;100201.19;4974744;28;20183;-86
2022/10/06 03:07:23;;;;;;;2.30;0.93;;;;;;;12.69;55.34;100207.22;4976220;28;20188;-86
2022/10/06 03:09:49;;;;;;;2.40;1.20;;;;;;;12.63;55.86;100210.97;4981187;28;20189;-86
2022/10/06 03:12:14;;;;;;;2.47;1.27;;;;;;;12.58;55.32;100207.69;4980640;28;20689;-86
2022/10/06 03:14:39;;;;;;;2.47;0.90;;;;;;;12.48;56.34;100201.13;4995845;28;20184;-87
2022/10/06 03:17:08;;;;;;;1.47;0.80;;;;;;;12.51;56.10;100201.00;4980885;28;20181;-86
2022/10/06 03:19:34;;;;;;;3.97;1.03;;;;;;;12.44;56.32;100198.72;4980833;28;20191;-86
2022/10/06 03:22:00;;;;;;;2.17;1.17;;;;;;;12.43;56.52;100197.84;4995826;28;20182;-86
2022/10/06 03:24:25;;;;;;;1.37;0.80;;;;;;;12.34;57.19;100193.00;4981045;28;20187;-86
2022/10/06 03:26:50;;;;;;;1.77;1.10;;;;;;;12.33;57.15;100186.03;4980519;28;20193;-86
2022/10/06 03:29:16;;;;;;;1.67;0.60;;;;;;;12.37;56.90;100190.22;4995637;28;20184;-86
2022/10/06 03:31:42;;;;;;;1.83;1.03;;;;;;;12.48;56.64;100201.13;4980778;28;20170;-86
2022/10/06 03:34:08;;;;;;;2.60;0.90;;;;;;;12.51;56.68;100189.63;4980481;28;20188;-87
2022/10/06 03:36:35;;;;;;;2.17;1.10;;;;;;;12.51;56.59;100190.50;4980892;28;20210;-86
2022/10/06 03:39:02;;;;;;;1.73;1.03;;;;;;;12.56;56.26;100188.50;4995677;28;20182;-86
2022/10/06 03:41:30;;;;;;;2.30;1.20;;;;;;;12.54;56.55;100179.84;4980656;28;20239;-86
2022/10/06 03:43:57;;;;;;;2.67;1.03;;;;;;;12.56;57.79;100178.00;4980649;28;20173;-86
2022/10/06 03:46:29;;;;;;;6.00;1.40;;;;;;;12.63;57.72;100174.16;4995630;28;20189;-86
2022/10/06 03:48:59;;;;;;;2.33;0.90;;;;;;;12.71;57.40;100172.03;4995642;28;20603;-86
2022/10/06 03:51:33;;;;;;;2.73;1.10;;;;;;;12.87;57.05;100173.06;4995647;28;20232;-86
2022/10/06 03:53:59;;;;;;;2.83;1.20;;;;;;;13.03;56.33;100175.00;4979326;28;20170;-86
2022/10/06 03:56:39;;;;;;;2.43;1.20;;;;;;;13.04;55.84;100171.44;4995449;28;20208;-86
2022/10/06 03:59:07;;;;;;;2.07;1.53;;;;;;;13.13;55.77;100173.69;4980539;28;20230;-86
2022/10/06 04:01:39;;;;;;;2.00;1.00;;;;;;;13.14;55.55;100173.63;4995468;28;20185;-86
2022/10/06 04:04:05;;;;;;;1.67;1.07;;;;;;;13.17;55.55;100165.56;4980431;28;20188;-86
2022/10/06 04:06:34;;;;;;;1.57;0.90;;;;;;;13.23;55.58;100164.44;4995431;28;20206;-86
2022/10/06 04:08:59;;;;;;;2.37;1.17;;;;;;;13.32;55.13;100154.31;4995444;28;20191;-87
2022/10/06 04:11:30;;;;;;;2.53;1.40;;;;;;;13.38;55.25;100158.44;4980148;28;20646;-86
2022/10/06 04:14:00;;;;;;;2.23;0.63;;;;;;;13.43;54.95;100153.81;4980372;28;20169;-86
2022/10/06 04:16:37;;;;;;;2.13;1.30;;;;;;;13.43;55.02;100156.44;4980274;28;20279;-87
2022/10/06 04:19:11;;;;;;;2.23;1.10;;;;;;;13.50;55.04;100158.69;4978284;28;20182;-87
2022/10/06 04:21:38;;;;;;;5.00;1.17;;;;;;;13.61;54.30;100155.53;4977066;28;20165;-86
2022/10/06 04:24:05;;;;;;;2.90;1.43;;;;;;;13.60;54.41;100166.19;4992316;28;20188;-86
2022/10/06 04:26:34;;;;;;;2.57;1.00;;;;;;;13.64;54.11;100159.81;4977222;28;20585;-87
2022/10/06 04:28:59;;;;;;;2.37;1.17;;;;;;;13.75;53.71;100163.66;4976771;28;20193;-86
2022/10/06 04:31:28;;;;;;;3.87;0.97;;;;;;;13.71;54.19;100163.84;4992030;28;20181;-87
2022/10/06 04:33:56;;;;;;;3.23;1.30;;;;;;;13.72;53.81;100166.44;4977059;28;20275;-86
2022/10/06 04:36:31;;;;;;;2.53;1.40;;;;;;;13.78;54.24;100160.88;4991926;28;20207;-87
2022/10/06 04:38:59;;;;;;;1.53;0.83;;;;;;;13.77;53.81;100167.06;4991909;28;20548;-87
2022/10/06 04:41:36;;;;;;;1.43;0.90;;;;;;;13.80;53.98;100166.91;4991849;28;20707;-87
2022/10/06 04:44:03;;;;;;;1.77;0.80;;;;;;;13.87;53.73;100168.28;4976630;28;20245;-87
2022/10/06 04:46:29;;;;;;;4.83;0.97;;;;;;;13.97;53.47;100168.69;4976807;28;20249;-87
2022/10/06 04:48:54;;;;;;;3.97;1.10;;;;;;;14.06;53.12;100171.72;4976547;28;20266;-87
2022/10/06 04:51:22;;;;;;;2.90;1.03;;;;;;;14.16;52.67;100170.34;4975545;28;20557;-87
2022/10/06 04:53:48;;;;;;;5.37;1.83;;;;;;;14.18;52.85;100175.50;4976724;28;20180;-87
2022/10/06 04:56:17;;;;;;;2.83;1.10;;;;;;;14.14;52.64;100174.84;4976344;28;20255;-87
2022/10/06 04:58:45;;;;;;;6.30;2.53;;;;;;;14.07;52.45;100173.41;4991543;28;20232;-87
2022/10/06 05:01:21;;;;;;;2.60;1.37;;;;;;;14.13;51.99;100174.91;4991521;28;20187;-86
2022/10/06 05:03:48;;;;;;;3.10;1.00;;;;;;;14.12;52.33;100173.22;4976561;28;20176;-87
2022/10/06 05:06:26;;;;;;;5.60;1.27;;;;;;;14.10;51.98;100175.03;4976158;28;20248;-87
2022/10/06 05:08:54;;;;;;;2.43;1.20;;;;;;;14.08;52.39;100169.88;4976459;28;20192;-87
2022/10/06 05:11:21;;;;;;;2.00;1.00;;;;;;;14.20;52.05;100170.19;4976305;28;20594;-87
2022/10/06 05:13:49;;;;;;;2.50;1.20;;;;;;;14.25;51.96;100170.78;4991276;28;20716;-86
2022/10/06 05:16:15;;;;;;;2.53;1.20;;;;;;;14.30;51.81;100166.13;4976189;28;20211;-86
2022/10/06 05:18:42;;;;;;;3.37;1.10;;;;;;;14.34;52.39;100170.34;4975948;28;20523;-86
2022/10/06 05:21:14;;;;;;;4.13;1.10;;;;;;;14.55;51.86;100170.09;4975911;28;20179;-86
2022/10/06 05:23:41;;;;;;;4.27;1.30;;;;;;;14.79;52.16;100173.22;4991130;28;20186;-87
2022/10/06 05:26:09;;;;;;;4.57;0.90;;;;;;;15.01;50.97;100172.94;4974899;28;20176;-87
2022/10/06 05:28:34;;;;;;;2.03;0.90;;;;;;;15.20;50.06;100171.81;4991581;28;20215;-86
2022/10/06 05:31:05;;;;;;;1.40;0.77;;;;;;;15.34;49.36;100169.28;4989778;28;20232;-87
2022/10/06 05:33:33;;;;;;;3.03;0.90;;;;;;;15.47;48.61;100169.47;4975709;28;20176;-87
2022/10/06 05:36:04;;;;;;;1.60;0.70;;;;;;;15.72;48.44;100180.34;4975593;28;20596;-87
2022/10/06 05:38:31;;;;;;;4.10;1.00;;;;;;;15.83;47.88;100182.38;4990869;28;20207;-87
2022/10/06 05:41:01;;;;;;;3.07;1.20;;;;;;;15.94;47.52;100185.28;4975584;28;20176;-86
2022/10/06 05:43:27;;;;;;;1.57;0.80;;;;;;;15.93;47.86;100179.13;4975524;28;20252;-86
2022/10/06 05:45:59;;;;;;;3.20;1.40;;;;;;;16.27;47.31;100183.28;4975983;28;20185;-86
2022/10/06 05:48:25;;;;;;;1.33;0.70;;;;;;;16.55;46.40;100180.75;4975627;28;20181;-86
2022/10/06 05:51:04;;;;;;;5.37;0.80;;;;;;;16.53;46.40;100169.38;4975524;28;20185;-86
2022/10/06 05:53:31;;;;;;;3.67;1.00;;;;;;;16.59;46.31;100184.06;4975762;28;20244;-86
2022/10/06 05:56:16;;;;;;;2.60;1.00;;;;;;;16.72;46.33;100185.00;4974370;28;20202;-87
2022/10/06 05:58:47;;;;;;;2.30;1.03;;;;;;;16.85;46.14;100185.97;4990504;28;20169;-86
2022/10/06 06:01:18;;;;;;;2.00;0.87;;;;;;;17.37;44.95;100185.38;4990449;28;20180;-87
2022/10/06 06:04:02;;;;;;;0.93;0.50;;;;;;;18.21;43.44;100178.94;4975432;28;20180;-86
2022/10/06 06:06:41;;;;;;;1.83;0.80;;;;;;;19.30;41.36;100180.09;4975381;28;20226;-86
2022/10/06 06:09:12;;;;;;;2.63;0.80;;;;;;;20.23;39.02;100177.59;4990327;28;20267;-87
2022/10/06 06:11:44;;;;;;;1.70;0.50;;;;;;;21.24;37.54;100174.13;4990248;28;20634;-87
2022/10/06 06:14:12;;;;;;;2.37;0.90;;;;;;;21.97;35.96;100176.16;4974962;28;20259;-87
2022/10/06 06:16:39;;;;;;;1.87;0.90;;;;;;;22.50;34.63;100180.50;4974832;28;20235;-86
2022/10/06 06:19:06;;;;;;;1.30;0.70;;;;;;;22.92;34.84;100180.50;4990106;28;20574;-86
2022/10/06 06:21:33;;;;;;;1.80;0.77;;;;;;;23.43;34.01;100181.28;4975105;28;20297;-87
2022/10/06 06:23:58;;;;;;;2.63;1.03;;;;;;;23.96;33.74;100189.84;4974778;28;20184;-87
2022/10/06 06:26:26;;;;;;;2.20;1.10;;;;;;;24.35;32.69;100182.66;4973807;28;20653;-87
2022/10/06 06:28:53;;;;;;;2.20;1.07;;;;;;;24.73;31.80;100176.41;4974999;28;20673;-87
2022/10/06 06:31:26;;;;;;;1.90;0.93;;;;;;;25.19;31.03;100184.44;4989865;28;20200;-87
2022/10/06 06:33:57;;;;;;;1.67;0.63;;;;;;;25.65;30.26;100183.53;4974669;28;20172;-87
2022/10/06 06:36:28;;;;;;;2.50;0.90;;;;;;;26.08;29.44;100180.94;4989721;28;20263;-87
2022/10/06 06:38:57;;;;;;;1.43;0.80;;;;;;;26.24;28.63;100180.28;4975069;28;20251;-87
2022/10/06 06:41:28;;;;;;;5.23;1.13;;;;;;;25.91;29.12;100191.69;4974203;28;20250;-87
2022/10/06 06:43:54;;;;;;;2.53;0.90;;;;;;;25.54;29.75;100187.28;4974703;28;20184;-87
2022/10/06 06:46:23;;;;;;;2.13;1.10;;;;;;;25.39;30.12;100190.56;4974467;28;20627;-87
2022/10/06 06:48:54;;;;;;;3.53;1.00;;;;;;;25.10;30.36;100197.91;4974461;28;20388;-86
2022/10/06 06:51:22;;;;;;;2.57;0.77;;;;;;;24.91;31.19;100194.31;4989570;28;20277;-87
2022/10/06 06:53:52;;;;;;;2.50;0.77;;;;;;;25.14;30.61;100193.91;4974349;28;20180;-87
2022/10/06 06:56:20;;;;;;;2.27;1.00;;;;;;;25.17;30.14;100194.47;4989458;28;20217;-88
2022/10/06 06:58:46;;;;;;;1.50;0.93;;;;;;;25.02;30.54;100198.66;4974307;28;20270;-87
2022/10/06 07:01:14;;;;;;;2.10;0.93;;;;;;;24.91;30.54;100194.31;4989504;28;20357;-87
2022/10/06 07:03:41;;;;;;;2.67;0.63;;;;;;;24.45;31.18;100197.75;4974293;28;20181;-86
2022/10/06 07:06:09;;;;;;;2.27;0.97;;;;;;;24.17;32.09;100192.41;4989469;28;20583;-88
2022/10/06 07:08:43;;;;;;;1.80;0.93;;;;;;;24.11;31.97;100193.81;4974462;28;20202;-87
2022/10/06 07:11:22;;;;;;;6.73;1.30;;;;;;;24.10;32.18;100196.63;4974330;28;20175;-87
2022/10/06 07:13:57;;;;;;;2.67;0.93;;;;;;;24.03;32.33;100187.44;4974496;28;20180;-87
2022/10/06 07:27:29;;;;;;;1.20;0.63;;;;;;;23.63;33.17;100184.84;4974376;28;20245;-86
2022/10/06 07:29:55;;;;;;;1.30;0.67;;;;;;;23.45;33.05;100187.38;4974234;28;20282;-88
2022/10/06 07:32:22;;;;;;;2.13;0.90;;;;;;;23.25;33.51;100188.22;4989325;28;20246;-89
2022/10/06 07:34:48;;;;;;;1.23;0.70;;;;;;;23.16;33.68;100189.91;4989069;28;20176;-86
2022/10/06 07:37:14;;;;;;;1.27;0.60;;;;;;;23.14;33.17;100185.66;4974239;28;20263;-88
2022/10/06 07:39:40;;;;;;;1.40;0.60;;;;;;;23.09;33.76;100183.38;4989209;28;20274;-88
2022/10/06 07:42:07;;;;;;;2.43;0.60;;;;;;;22.69;33.77;100185.16;4989105;28;20191;-87
2022/10/06 07:44:32;;;;;;;1.20;0.70;;;;;;;22.65;33.29;100178.38;4973941;28;20591;-88
2022/10/06 07:46:57;;;;;;;6.17;0.90;;;;;;;22.60;33.90;100176.06;4973924;28;20251;-88
2022/10/06 07:49:23;;;;;;;2.77;1.00;;;;;;;22.55;33.69;100170.28;4989060;28;20192;-87
2022/10/06 07:51:48;;;;;;;1.60;0.70;;;;;;;22.43;33.53;100178.50;4973866;28;20563;-88
2022/10/06 07:54:14;;;;;;;1.53;0.73;;;;;;;22.45;34.32;100172.03;4975709;28;20191;-87
2022/10/06 07:56:39;;;;;;;2.33;0.87;;;;;;;22.26;34.03;100166.56;4977461;28;20207;-85
2022/10/06 07:59:04;;;;;;;2.27;0.90;;;;;;;22.26;34.58;100174.56;4976513;28;20602;-88
2022/10/06 08:01:30;;;;;;;1.83;0.80;;;;;;;22.28;34.77;100169.94;4992590;28;20180;-87
2022/10/06 08:03:56;;;;;;;2.73;1.07;;;;;;;22.24;35.00;100168.53;4992602;28;20191;-87
2022/10/06 08:06:23;;;;;;;1.83;0.90;;;;;;;22.38;35.02;100157.50;4977353;28;20181;-86
2022/10/06 08:08:51;;;;;;;2.07;0.57;;;;;;;22.55;34.42;100156.06;4992515;28;20204;-87
2022/10/06 08:11:17;;;;;;;1.87;0.73;;;;;;;22.71;34.59;100151.13;4977206;28;20655;-87
2022/10/06 08:13:44;;;;;;;1.80;0.80;;;;;;;22.84;34.57;100156.25;4977198;28;20218;-87
2022/10/06 08:16:21;;;;;;;1.13;0.60;;;;;;;23.01;33.41;100150.25;4977046;28;20704;-86
2022/10/06 08:18:54;;;;;;;1.57;0.67;;;;;;;22.87;34.05;100147.97;4976154;28;20621;-88
2022/10/06 08:21:29;;;;;;;1.83;0.77;;;;;;;22.92;34.04;100143.06;4992372;28;20614;-88
2022/10/06 08:23:56;;;;;;;3.30;0.73;;;;;;;22.99;33.28;100146.88;4976131;28;20534;-89
2022/10/06 08:26:24;;;;;;;0.90;0.40;;;;;;;23.02;33.51;100150.13;4976954;28;20658;-88
2022/10/06 08:28:51;;;;;;;1.17;0.50;;;;;;;23.05;33.49;100149.03;4992141;28;20606;-88
2022/10/06 08:31:20;;;;;;;1.20;0.60;;;;;;;23.19;33.75;100137.97;4975873;28;20287;-88
2022/10/06 08:33:46;;;;;;;2.03;0.90;;;;;;;23.27;33.51;100127.41;4976867;28;20179;-88
2022/10/06 08:36:17;;;;;;;1.90;0.70;;;;;;;23.36;33.17;100129.25;4975829;28;20257;-89
2022/10/06 08:38:46;;;;;;;1.20;0.50;;;;;;;23.30;33.33;100129.81;4977161;28;20191;-87
2022/10/06 08:41:23;;;;;;;3.73;1.10;;;;;;;23.62;33.19;100135.81;4976736;28;20542;-87
2022/10/06 08:44:01;;;;;;;1.17;0.53;;;;;;;23.85;33.01;100129.22;4976648;28;20264;-90
2022/10/06 08:46:34;;;;;;;1.10;0.60;;;;;;;24.08;32.03;100119.06;4976865;28;20196;-87
2022/10/06 08:49:00;;;;;;;2.40;0.77;;;;;;;24.08;31.83;100119.06;4975604;28;20669;-89
2022/10/06 08:51:48;;;;;;;2.53;0.70;;;;;;;24.09;32.56;100125.28;4976499;28;20180;-88
2022/10/06 08:54:28;;;;;;;1.33;0.63;;;;;;;24.28;32.24;100126.13;4991927;28;20223;-88
2022/10/06 08:57:03;;;;;;;1.10;0.70;;;;;;;24.33;31.41;100129.22;4976617;28;20211;-88
2022/10/06 08:59:32;;;;;;;1.57;0.60;;;;;;;24.52;31.47;100120.28;4976587;28;20168;-87
2022/10/06 09:01:58;;;;;;;1.30;0.43;;;;;;;24.57;30.74;100117.16;4976318;28;20260;-89
2022/10/06 09:04:30;;;;;;;1.03;0.50;;;;;;;24.62;31.06;100118.41;4975940;28;20212;-89
2022/10/06 09:07:27;;;;;;;2.20;0.90;;;;;;;24.66;30.51;100119.81;4976441;28;20256;-88
2022/10/06 09:10:21;;;;;;;0.87;0.50;;;;;;;24.79;31.82;100109.63;4953449;28;20286;-88
2022/10/06 09:12:53;;;;;;;1.47;0.60;;;;;;;25.11;31.62;100114.56;4976110;28;20180;-88
2022/10/06 09:15:33;;;;;;;1.20;0.70;;;;;;;25.13;30.15;100103.69;4991274;28;20678;-89
2022/10/06 09:18:14;;;;;;;1.87;0.53;;;;;;;25.16;30.50;100106.09;4991790;28;20168;-88
2022/10/06 09:21:01;;;;;;;0.83;0.50;;;;;;;25.27;30.61;100113.91;4976241;28;20594;-89
2022/10/06 09:23:46;;;;;;;1.30;0.60;;;;;;;25.54;30.24;100097.81;4976068;28;20660;-87
2022/10/06 09:26:15;;;;;;;2.17;0.60;;;;;;;25.54;29.61;100111.22;4991183;28;20300;-89
2022/10/06 09:28:44;;;;;;;4.50;0.87;;;;;;;25.40;30.37;100107.19;4991060;28;20183;-88
2022/10/06 09:31:23;;;;;;;0.73;0.40;;;;;;;25.62;29.81;100103.25;4975726;28;20219;-87
2022/10/06 09:33:58;;;;;;;1.53;0.73;;;;;;;25.95;29.36;100099.88;4976005;28;20192;-88
2022/10/06 09:36:24;;;;;;;1.20;0.60;;;;;;;25.78;29.32;100098.06;4990910;28;20637;-87
2022/10/06 09:38:52;;;;;;;1.07;0.60;;;;;;;25.76;29.20;100091.16;4975886;28;20192;-88
2022/10/06 09:41:22;;;;;;;1.57;0.70;;;;;;;25.95;29.65;100081.06;4975390;28;20204;-88
2022/10/06 09:44:02;;;;;;;1.30;0.57;;;;;;;26.06;29.07;100083.50;4976063;28;20180;-88
2022/10/06 09:46:27;;;;;;;0.93;0.43;;;;;;;25.94;28.57;100086.59;4975777;28;20180;-87
2022/10/06 09:49:06;;;;;;;1.70;0.50;;;;;;;25.93;29.17;100080.38;4990710;28;20219;-88
2022/10/06 09:51:35;;;;;;;1.23;0.57;;;;;;;25.98;28.92;100080.75;4975386;28;20551;-87
2022/10/06 09:54:14;;;;;;;1.93;0.70;;;;;;;25.89;28.85;100078.16;4975394;28;20184;-87
2022/10/06 09:56:44;;;;;;;1.03;0.50;;;;;;;25.96;28.89;100085.44;4975793;28;20196;-87
2022/10/06 09:59:40;;;;;;;0.83;0.47;;;;;;;26.17;28.96;100077.06;4975796;28;20169;-88
2022/10/06 10:02:25;;;;;;;0.93;0.50;;;;;;;26.21;29.06;100060.47;4990460;28;20168;-88
2022/10/06 10:04:54;;;;;;;0.90;0.40;;;;;;;26.16;28.51;100070.00;4990383;28;20178;-89
2022/10/06 10:07:26;;;;;;;1.83;0.60;;;;;;;26.48;28.22;100072.06;4990305;28;20184;-88
2022/10/06 10:09:53;;;;;;;1.47;0.50;;;;;;;26.37;27.92;100069.63;4975050;28;20180;-88
2022/10/06 10:12:24;;;;;;;1.33;0.40;;;;;;;26.42;28.42;100064.63;4990241;28;20192;-88
2022/10/06 10:14:57;;;;;;;1.40;0.50;;;;;;;26.35;27.99;100068.94;4990205;28;20588;-87
2022/10/06 10:17:31;;;;;;;1.00;0.47;;;;;;;26.21;28.68;100068.53;4989877;28;20165;-88
2022/10/06 10:19:59;;;;;;;3.03;0.60;;;;;;;26.15;28.75;100054.88;4990886;28;20188;-88
2022/10/06 10:22:37;;;;;;;1.57;0.50;;;;;;;26.12;28.92;100048.00;4974861;28;20259;-89
2022/10/06 10:25:40;;;;;;;1.20;0.50;;;;;;;26.33;28.55;100049.47;4975098;28;20278;-87
2022/10/06 10:28:14;;;;;;;1.53;0.47;;;;;;;26.71;27.86;100035.53;4975124;28;20183;-88
2022/10/06 10:31:16;;;;;;;1.23;0.53;;;;;;;26.79;27.81;100025.69;4990042;28;20201;-88
2022/10/06 10:34:17;;;;;;;1.50;0.40;;;;;;;27.13;27.40;100022.06;4959094;28;20222;-89
2022/10/06 10:37:03;;;;;;;1.73;0.70;;;;;;;26.96;27.39;100023.91;4968783;28;20219;-88
2022/10/06 10:39:40;;;;;;;1.57;0.50;;;;;;;27.11;27.42;100019.56;4954264;28;20642;-89
2022/10/06 10:42:38;;;;;;;0.70;0.43;;;;;;;26.98;26.93;100024.56;4971356;28;20183;-87
2022/10/06 10:45:13;;;;;;;1.00;0.50;;;;;;;26.92;26.23;100019.84;4970328;28;20179;-89
2022/10/06 10:47:43;;;;;;;3.23;0.70;;;;;;;26.60;27.71;100011.59;4955575;28;20196;-88
2022/10/06 10:50:30;;;;;;;1.13;0.40;;;;;;;26.69;27.25;100007.94;4970227;28;20566;-87
2022/10/06 10:53:14;;;;;;;1.80;0.70;;;;;;;26.79;26.69;100006.84;4955208;28;20267;-88
2022/10/06 10:55:43;;;;;;;1.33;0.60;;;;;;;27.03;26.92;100000.69;4970279;28;20204;-90
2022/10/06 10:58:38;;;;;;;0.93;0.40;;;;;;;27.09;26.44;100002.75;4954128;28;20702;-88
2022/10/06 11:01:29;;;;;;;1.08;0.50;;;;;;;27.27;26.43;99995.38;4970226;28;20239;-89
2022/10/06 11:03:57;;;;;;;0.53;0.40;;;;;;;27.36;26.53;99988.13;4955037;28;20181;-87
2022/10/06 11:06:40;;;;;;;0.98;0.55;;;;;;;27.44;25.82;99986.31;4970292;28;20177;-88
2022/10/06 11:09:17;;;;;;;0.75;0.50;;;;;;;27.59;25.80;99988.34;4955282;28;20236;-88
2022/10/06 11:12:04;;;;;;;2.10;0.47;;;;;;;27.49;25.53;99980.41;4954138;28;20184;-89
2022/10/06 11:15:04;;;;;;;1.67;0.77;;;;;;;27.63;25.50;99981.59;4970216;28;20565;-88
2022/10/06 11:17:44;;;;;;;1.20;0.60;;;;;;;27.68;25.75;99979.25;4970130;28;20224;-88
2022/10/06 11:20:31;;;;;;;3.08;0.43;;;;;;;27.82;25.76;99962.41;4955509;28;20172;-88
2022/10/06 11:23:16;;;;;;;4.63;1.00;;;;;;;27.98;25.42;99957.84;4955258;28;20224;-88
2022/10/06 11:25:54;;;;;;;1.63;0.60;;;;;;;28.22;24.73;99964.22;4970008;28;20191;-88
2022/10/06 11:28:26;;;;;;;2.15;0.55;;;;;;;28.39;25.26;99953.19;4971551;28;20263;-88
2022/10/06 11:30:59;;;;;;;2.30;0.65;;;;;;;28.54;24.57;99956.81;4957853;28;20223;-88
2022/10/06 11:33:49;;;;;;;1.90;0.88;;;;;;;28.24;24.99;99960.31;4959240;28;20174;-88
2022/10/06 11:36:24;;;;;;;2.25;0.60;;;;;;;28.38;24.93;99951.47;4973725;28;20299;-87
2022/10/06 11:39:31;;;;;;;1.65;0.45;;;;;;;28.43;24.87;99949.09;4973848;28;20183;-88
2022/10/06 11:42:06;;;;;;;1.80;0.77;;;;;;;28.21;24.37;99946.34;4927084;28;20189;-88
2022/10/06 11:44:46;;;;;;;1.23;0.43;;;;;;;28.30;24.83;99943.41;4957579;28;20615;-89
2022/10/06 11:47:38;;;;;;;3.25;0.40;;;;;;;28.36;25.30;99929.25;4958776;28;20191;-89
2022/10/06 11:50:30;;;;;;;0.68;0.30;;;;;;;28.32;25.03;99930.63;4958685;28;20185;-88
2022/10/06 11:52:55;;;;;;;0.20;0.20;;;;;;;28.25;24.62;99934.19;4973363;28;20191;-88
2022/10/06 11:55:25;;;;;;;2.80;0.57;;;;;;;28.38;24.45;99927.22;4958459;28;20205;-88